createdAt,value
2023-02-03T00:00:56.669Z,98424.28
2023-02-03T00:03:23.613Z,98342.50
2023-02-03T00:05:50.283Z,98379.50
2023-02-03T00:08:17.691Z,98425.19
2023-02-03T00:10:44.270Z,98151.81
2023-02-03T00:13:10.797Z,98383.00
2023-02-03T00:15:37.358Z,98307.94
2023-02-03T00:18:03.939Z,98360.38
2023-02-03T00:20:30.727Z,98397.06
2023-02-03T00:23:06.745Z,98364.69
2023-02-03T00:25:33.327Z,98319.03
2023-02-03T00:27:59.924Z,98362.84
2023-02-03T00:30:26.897Z,98266.56
2023-02-03T00:32:53.726Z,98466.97
2023-02-03T00:35:20.281Z,98219.25
2023-02-03T00:37:54.302Z,98373.19
2023-02-03T00:40:21.344Z,98442.47
2023-02-03T00:42:47.897Z,98339.88
2023-02-03T00:45:14.478Z,98436.41
2023-02-03T00:47:41.052Z,98417.16
2023-02-03T00:50:08.185Z,98300.16
2023-02-03T00:52:34.768Z,98350.38
2023-02-03T00:55:01.367Z,98443.19
2023-02-03T00:57:27.986Z,98342.41
2023-02-03T00:59:54.949Z,98379.19
2023-02-03T01:02:21.578Z,98266.63
2023-02-03T01:04:48.779Z,98235.59
2023-02-03T01:07:15.468Z,98239.94
2023-02-03T01:09:42.073Z,98311.00
2023-02-03T01:12:08.632Z,98281.41
2023-02-03T01:14:35.260Z,98461.78
2023-02-03T01:17:01.851Z,98331.50
2023-02-03T01:19:28.415Z,98404.25
2023-02-03T01:21:54.939Z,98309.31
2023-02-03T01:24:21.530Z,98426.13
2023-02-03T01:26:48.134Z,98439.19
2023-02-03T01:29:14.751Z,98396.75
2023-02-03T01:31:42.366Z,98187.66
2023-02-03T01:34:12.347Z,98433.06
2023-02-03T01:36:38.899Z,98319.03
2023-02-03T01:39:05.810Z,98426.13
2023-02-03T01:41:34.464Z,98390.38
2023-02-03T01:44:01.425Z,98302.44
2023-02-03T01:46:43.275Z,98315.41
2023-02-03T01:49:18.759Z,98436.31
2023-02-03T01:51:45.609Z,98332.69
2023-02-03T01:54:14.061Z,98299.59
2023-02-03T01:56:42.504Z,98277.28
2023-02-03T01:59:09.068Z,98329.00
2023-02-03T02:01:35.735Z,98326.78
2023-02-03T02:04:02.882Z,98332.31
2023-02-03T02:06:29.447Z,98396.22
2023-02-03T02:08:56.067Z,98309.72
2023-02-03T02:11:22.653Z,98425.97
2023-02-03T02:13:50.238Z,98389.00
2023-02-03T02:16:35.728Z,98220.16
2023-02-03T02:19:35.937Z,98432.97
2023-02-03T02:22:02.407Z,98426.97
2023-02-03T02:24:56.795Z,98425.31
2023-02-03T02:27:51.265Z,98410.00
2023-02-03T02:30:24.127Z,98417.56
2023-02-03T02:33:03.067Z,98407.38
2023-02-03T02:35:47.671Z,98364.28
2023-02-03T02:38:23.392Z,98405.69
2023-02-03T02:41:11.894Z,98323.97
2023-02-03T02:43:47.313Z,98305.00
2023-02-03T02:46:16.145Z,98380.47
2023-02-03T02:49:03.074Z,98324.81
2023-02-03T02:51:29.707Z,98362.97
2023-02-03T02:53:57.981Z,98269.22
2023-02-03T02:56:25.200Z,98191.63
2023-02-03T02:58:51.823Z,98345.56
2023-02-03T03:01:19.305Z,98284.75
2023-02-03T03:03:46.027Z,98271.84
2023-02-03T03:06:25.351Z,98119.94
2023-02-03T03:08:55.634Z,98391.16
2023-02-03T03:11:22.191Z,98382.66
2023-02-03T03:13:53.275Z,98184.28
2023-02-03T03:16:24.767Z,98310.41
2023-02-03T03:19:09.212Z,98300.78
2023-02-03T03:21:42.420Z,98268.19
2023-02-03T03:24:10.473Z,98366.84
2023-02-03T03:26:47.074Z,98266.69
2023-02-03T03:29:17.898Z,98327.03
2023-02-03T03:31:44.645Z,98309.44
2023-02-03T03:34:11.356Z,98360.00
2023-02-03T03:36:45.038Z,98132.34
2023-02-03T03:39:30.180Z,98268.63
2023-02-03T03:42:00.988Z,98146.59
2023-02-03T03:44:29.994Z,98290.53
2023-02-03T03:47:02.094Z,98337.25
2023-02-03T03:49:28.682Z,98344.16
2023-02-03T03:52:00.205Z,98286.09
2023-02-03T03:54:26.805Z,98390.97
2023-02-03T03:57:09.624Z,98372.53
2023-02-03T03:59:37.706Z,98441.34
2023-02-03T04:02:05.049Z,98371.25
2023-02-03T04:04:33.189Z,98174.84
2023-02-03T04:06:59.760Z,98377.25
2023-02-03T04:09:26.394Z,98346.72
2023-02-03T04:12:01.640Z,98311.63
2023-02-03T04:14:30.428Z,98356.03
2023-02-03T04:16:57.846Z,98372.81
2023-02-03T04:19:24.349Z,98309.72
2023-02-03T04:21:51.009Z,98313.34
2023-02-03T04:24:17.589Z,98361.91
2023-02-03T04:26:44.139Z,98420.88
2023-02-03T04:29:10.775Z,98339.53
2023-02-03T04:31:38.585Z,98363.16
2023-02-03T04:34:05.830Z,98421.41
2023-02-03T04:36:32.398Z,98418.75
2023-02-03T04:38:58.937Z,98289.00
2023-02-03T04:41:25.535Z,98381.66
2023-02-03T04:43:52.095Z,98299.47
2023-02-03T04:46:19.067Z,98274.72
2023-02-03T04:48:45.663Z,98309.50
2023-02-03T04:51:12.245Z,98330.66
2023-02-03T04:53:38.791Z,98351.50
2023-02-03T04:56:05.649Z,98300.41
2023-02-03T04:58:32.215Z,98250.38
2023-02-03T05:00:58.940Z,98376.63
2023-02-03T05:03:26.426Z,98382.50
2023-02-03T05:05:53.149Z,98318.50
2023-02-03T05:08:20.059Z,98289.03
2023-02-03T05:10:46.624Z,98301.44
2023-02-03T05:13:13.210Z,98350.75
2023-02-03T05:15:39.791Z,98351.31
2023-02-03T05:18:06.317Z,98144.34
2023-02-03T05:20:32.860Z,98328.50
2023-02-03T05:22:59.440Z,98234.03
2023-02-03T05:25:25.996Z,98254.84
2023-02-03T05:27:52.646Z,98391.97
2023-02-03T05:30:19.293Z,98268.72
2023-02-03T05:32:46.390Z,98264.44
2023-02-03T05:35:13.421Z,98330.25
2023-02-03T05:37:40.083Z,98285.78
2023-02-03T05:40:26.342Z,98354.97
2023-02-03T05:42:53.199Z,98326.69
2023-02-03T05:45:19.739Z,98330.19
2023-02-03T05:47:46.246Z,98349.63
2023-02-03T05:50:13.903Z,98273.59
2023-02-03T05:52:40.472Z,98326.69
2023-02-03T05:55:07.323Z,98340.03
2023-02-03T05:57:33.806Z,98285.06
2023-02-03T06:00:00.334Z,98385.06
2023-02-03T06:02:26.922Z,98313.31
2023-02-03T06:04:53.513Z,98314.84
2023-02-03T06:07:20.057Z,98287.00
2023-02-03T06:09:46.611Z,98376.50
2023-02-03T06:12:13.108Z,98293.28
2023-02-03T06:14:39.906Z,98381.84
2023-02-03T06:17:06.437Z,98380.09
2023-02-03T06:19:32.973Z,98310.72
2023-02-03T06:21:59.485Z,98267.91
2023-02-03T06:24:26.028Z,98333.81
2023-02-03T06:26:52.786Z,98323.47
2023-02-03T06:29:19.504Z,98254.22
2023-02-03T06:31:46.125Z,98391.59
2023-02-03T06:34:12.771Z,98374.84
2023-02-03T06:36:39.262Z,98301.47
2023-02-03T06:39:05.779Z,98330.63
2023-02-03T06:41:32.830Z,98357.38
2023-02-03T06:43:59.391Z,98292.69
2023-02-03T06:46:29.810Z,98370.69
2023-02-03T06:48:56.407Z,98337.91
2023-02-03T06:51:24.826Z,98321.88
2023-02-03T06:53:51.379Z,98318.38
2023-02-03T06:56:17.934Z,98336.63
2023-02-03T06:58:44.626Z,98303.41
2023-02-03T07:01:11.221Z,98330.56
2023-02-03T07:03:37.989Z,98309.53
2023-02-03T07:06:04.663Z,98349.63
2023-02-03T07:08:31.214Z,98312.56
2023-02-03T07:10:57.704Z,98346.78
2023-02-03T07:13:24.337Z,98284.59
2023-02-03T07:15:51.031Z,98310.06
2023-02-03T07:18:36.004Z,98309.94
2023-02-03T07:21:06.566Z,98360.81
2023-02-03T07:23:33.226Z,98233.69
2023-02-03T07:26:00.389Z,98294.31
2023-02-03T07:28:26.900Z,98285.84
2023-02-03T07:30:53.605Z,98301.47
2023-02-03T07:33:20.558Z,98303.91
2023-02-03T07:35:54.115Z,98315.81
2023-02-03T07:38:20.680Z,98316.94
2023-02-03T07:40:47.291Z,98244.47
2023-02-03T07:43:13.928Z,98304.44
2023-02-03T07:45:40.567Z,98279.03
2023-02-03T07:48:07.052Z,98355.66
2023-02-03T07:50:33.641Z,98321.41
2023-02-03T07:53:00.673Z,98310.16
2023-02-03T07:55:27.519Z,98315.31
2023-02-03T07:57:55.108Z,98349.53
2023-02-03T08:00:21.889Z,98316.09
2023-02-03T08:02:48.420Z,98305.69
2023-02-03T08:05:15.059Z,98333.09
2023-02-03T08:07:41.715Z,98335.66
2023-02-03T08:10:08.709Z,98290.66
2023-02-03T08:12:35.377Z,98320.41
2023-02-03T08:15:02.117Z,98343.38
2023-02-03T08:17:28.821Z,98356.28
2023-02-03T08:19:55.345Z,98290.91
2023-02-03T08:22:21.871Z,98295.91
2023-02-03T08:24:48.501Z,98354.09
2023-02-03T08:27:16.175Z,98348.78
2023-02-03T08:29:43.550Z,98346.31
2023-02-03T08:32:10.974Z,98263.75
2023-02-03T08:34:37.797Z,98334.63
2023-02-03T08:37:04.806Z,98313.31
2023-02-03T08:39:31.513Z,98292.56
2023-02-03T08:41:58.055Z,98256.72
2023-02-03T08:44:24.594Z,98321.88
2023-02-03T08:46:52.244Z,98316.75
2023-02-03T08:49:19.111Z,98302.91
2023-02-03T08:51:46.567Z,98319.75
2023-02-03T08:54:13.423Z,98278.06
2023-02-03T08:56:40.035Z,98302.72
2023-02-03T08:59:06.715Z,98301.31
2023-02-03T09:01:33.290Z,98361.78
2023-02-03T09:04:01.976Z,98337.91
2023-02-03T09:06:30.099Z,98357.69
2023-02-03T09:08:56.821Z,98329.31
2023-02-03T09:11:23.526Z,98303.34
2023-02-03T09:13:50.154Z,98367.72
2023-02-03T09:16:18.497Z,98278.91
2023-02-03T09:18:45.753Z,98264.34
2023-02-03T09:21:20.922Z,98312.69
2023-02-03T09:24:01.890Z,98304.69
2023-02-03T09:26:28.548Z,98266.31
2023-02-03T09:28:55.081Z,98297.66
2023-02-03T09:31:21.662Z,98318.66
2023-02-03T09:33:48.243Z,98281.06
2023-02-03T09:36:14.835Z,98290.59
2023-02-03T09:38:41.403Z,98268.88
2023-02-03T09:41:12.128Z,98363.44
2023-02-03T09:44:00.299Z,98365.16
2023-02-03T09:46:28.281Z,98287.75
2023-02-03T09:49:00.231Z,98350.66
2023-02-03T09:51:46.364Z,98244.25
2023-02-03T09:54:15.039Z,98380.47
2023-02-03T09:56:41.568Z,98294.03
2023-02-03T09:59:08.536Z,98351.66
2023-02-03T10:01:46.455Z,98327.94
2023-02-03T10:04:27.847Z,98383.88
2023-02-03T10:07:03.935Z,98357.91
2023-02-03T10:09:40.822Z,98367.69
2023-02-03T10:12:16.438Z,98357.50
2023-02-03T10:14:55.106Z,98363.44
2023-02-03T10:17:46.951Z,98336.25
2023-02-03T10:20:36.080Z,98363.44
2023-02-03T10:23:04.807Z,98311.94
2023-02-03T10:25:36.163Z,98360.91
2023-02-03T10:28:04.934Z,98367.69
2023-02-03T10:30:33.506Z,98265.03
2023-02-03T10:33:18.860Z,98326.59
2023-02-03T10:35:48.572Z,98302.06
2023-02-03T10:38:19.832Z,98331.00
2023-02-03T10:40:46.572Z,98316.09
2023-02-03T10:43:31.832Z,98324.13
2023-02-03T10:45:58.471Z,98279.16
2023-02-03T10:48:25.023Z,98300.38
2023-02-03T10:50:51.680Z,98282.78
2023-02-03T10:53:18.077Z,98345.88
2023-02-03T10:55:45.487Z,98344.28
2023-02-03T10:58:17.092Z,98341.72
2023-02-03T11:00:43.865Z,98299.81
2023-02-03T11:03:13.415Z,98323.03
2023-02-03T11:05:40.786Z,98239.13
2023-02-03T11:08:15.881Z,98305.34
2023-02-03T11:10:43.293Z,98270.69
2023-02-03T11:13:19.662Z,98311.22
2023-02-03T11:16:04.676Z,98307.00
2023-02-03T11:18:53.182Z,98300.19
2023-02-03T11:21:38.268Z,98238.03
2023-02-03T11:24:25.182Z,98221.91
2023-02-03T11:26:55.371Z,98221.41
2023-02-03T11:29:32.295Z,98226.16
2023-02-03T11:32:00.818Z,98248.78
2023-02-03T11:34:34.666Z,98258.50
2023-02-03T11:37:34.112Z,98201.38
2023-02-03T11:40:12.717Z,98233.88
2023-02-03T11:42:41.838Z,98107.78
2023-02-03T11:45:17.924Z,98227.13
2023-02-03T11:47:46.849Z,98185.03
2023-02-03T11:50:41.627Z,98243.31
2023-02-03T11:53:12.847Z,98168.19
2023-02-03T11:55:41.568Z,98161.63
2023-02-03T11:58:31.840Z,98200.91
2023-02-03T12:01:10.622Z,98218.63
2023-02-03T12:03:59.449Z,98208.44
2023-02-03T12:06:33.480Z,98194.81
2023-02-03T12:09:06.435Z,98167.59
2023-02-03T12:11:52.589Z,98197.09
2023-02-03T12:14:39.417Z,98155.50
2023-02-03T12:17:23.423Z,98194.88
2023-02-03T12:20:02.269Z,98194.88
2023-02-03T12:22:37.941Z,98194.88
2023-02-03T12:25:43.832Z,98192.31
2023-02-03T12:28:32.220Z,98192.38
2023-02-03T12:31:07.792Z,98142.75
2023-02-03T12:33:38.665Z,98094.41
2023-02-03T12:36:11.152Z,98057.94
2023-02-03T12:38:59.448Z,98182.31
2023-02-03T12:41:32.024Z,98141.31
2023-02-03T12:44:00.975Z,98138.75
2023-02-03T12:46:52.843Z,98049.38
2023-02-03T12:49:31.418Z,98160.25
2023-02-03T12:52:11.671Z,98026.94
2023-02-03T12:54:50.782Z,98156.91
2023-02-03T12:57:24.794Z,98102.56
2023-02-03T13:00:09.054Z,98063.78
2023-02-03T13:03:00.672Z,98131.38
2023-02-03T13:05:42.947Z,98139.81
2023-02-03T13:08:37.445Z,98133.03
2023-02-03T13:11:39.546Z,98120.78
2023-02-03T13:14:14.357Z,98090.25
2023-02-03T13:16:42.553Z,98121.94
2023-02-03T13:19:18.763Z,98071.34
2023-02-03T13:21:46.733Z,98049.84
2023-02-03T13:24:13.335Z,98052.47
2023-02-03T13:26:48.918Z,98103.94
2023-02-03T13:29:46.045Z,98052.66
2023-02-03T13:32:15.765Z,98081.84
2023-02-03T13:35:08.045Z,98073.31
2023-02-03T13:37:38.093Z,98060.47
2023-02-03T13:40:19.906Z,98054.59
2023-02-03T13:42:58.426Z,98034.09
2023-02-03T13:45:24.840Z,98054.59
2023-02-03T13:47:53.386Z,98024.53
2023-02-03T13:50:26.086Z,97971.72
2023-02-03T13:53:03.098Z,98072.44
2023-02-03T13:55:38.616Z,98072.44
2023-02-03T13:58:06.222Z,97997.88
2023-02-03T14:00:44.896Z,98081.84
2023-02-03T14:03:24.180Z,98051.78
2023-02-03T14:05:54.268Z,97934.53
2023-02-03T14:08:29.721Z,98068.19
2023-02-03T14:11:33.500Z,98072.53
2023-02-03T14:14:12.393Z,98074.25
2023-02-03T14:16:55.322Z,97797.16
2023-02-03T14:19:21.825Z,98042.66
2023-02-03T14:21:57.211Z,98043.47
2023-02-03T14:24:23.811Z,98028.03
2023-02-03T14:26:52.151Z,98015.53
2023-02-03T14:29:29.845Z,97990.41
2023-02-03T14:31:57.411Z,97986.81
2023-02-03T14:34:34.570Z,98043.41
2023-02-03T14:37:29.668Z,98039.97
2023-02-03T14:40:07.022Z,98053.56
2023-02-03T14:42:58.592Z,98055.31
2023-02-03T14:45:53.091Z,98046.78
2023-02-03T14:48:30.739Z,97989.19
2023-02-03T14:51:22.344Z,98038.38
2023-02-03T14:54:01.061Z,98046.78
2023-02-03T14:57:06.542Z,98046.78
2023-02-03T14:59:38.260Z,98004.94
2023-02-03T15:02:23.203Z,98051.00
2023-02-03T15:04:50.789Z,98007.91
2023-02-03T15:07:49.426Z,98049.22
2023-02-03T15:10:20.941Z,97995.72
2023-02-03T15:12:51.903Z,97912.22
2023-02-03T15:15:32.868Z,98044.50
2023-02-03T15:18:00.646Z,97996.59
2023-02-03T15:20:43.798Z,98023.13
2023-02-03T15:23:20.857Z,97951.63
2023-02-03T15:25:53.840Z,98005.06
2023-02-03T15:28:21.208Z,98013.00
2023-02-03T15:30:50.384Z,98070.28
2023-02-03T15:33:20.361Z,98062.44
2023-02-03T15:35:47.975Z,98036.22
2023-02-03T15:38:29.558Z,98038.22
2023-02-03T15:40:58.058Z,97950.66
2023-02-03T15:43:38.388Z,98078.84
2023-02-03T15:46:18.808Z,98051.91
2023-02-03T15:48:58.251Z,98047.44
2023-02-03T15:51:48.327Z,98031.16
2023-02-03T15:54:24.572Z,97952.06
2023-02-03T15:56:56.998Z,97997.59
2023-02-03T15:59:25.203Z,98084.50
2023-02-03T16:01:52.266Z,98026.00
2023-02-03T16:04:18.909Z,98033.03
2023-02-03T16:06:47.001Z,97991.34
2023-02-03T16:09:39.211Z,97999.97
2023-02-03T16:12:35.019Z,98028.13
2023-02-03T16:15:02.108Z,98024.84
2023-02-03T16:17:39.316Z,98045.00
2023-02-03T16:20:11.949Z,98056.69
2023-02-03T16:22:40.507Z,97966.53
2023-02-03T16:38:36.661Z,98044.91
2023-02-03T16:41:22.698Z,97949.22
2023-02-03T16:44:07.795Z,98010.94
2023-02-03T16:46:52.880Z,98042.16
2023-02-03T16:49:37.979Z,97990.59
2023-02-03T16:52:06.486Z,97985.31
2023-02-03T16:54:33.025Z,98058.41
2023-02-03T16:56:59.649Z,98058.34
2023-02-03T16:59:26.204Z,98082.53
2023-02-03T17:01:52.849Z,97966.47
2023-02-03T17:04:19.428Z,98011.56
2023-02-03T17:06:45.982Z,98075.28
2023-02-03T17:09:12.551Z,98052.59
2023-02-03T17:11:39.196Z,98050.03
2023-02-03T17:14:05.787Z,98059.97
2023-02-03T17:16:33.414Z,98029.69
2023-02-03T17:19:00.005Z,98036.22
2023-02-03T17:21:28.015Z,98049.22
2023-02-03T17:23:54.534Z,98073.34
2023-02-03T17:26:21.160Z,98045.50
2023-02-03T17:28:47.695Z,98067.97
2023-02-03T17:31:16.331Z,98048.38
2023-02-03T17:33:43.040Z,98045.97
2023-02-03T17:36:17.229Z,98002.09
2023-02-03T17:55:16.367Z,98021.09
2023-02-03T17:57:42.907Z,98019.63
2023-02-03T18:00:10.672Z,98021.41
2023-02-03T18:02:37.297Z,98018.84
2023-02-03T18:05:03.977Z,98043.34
2023-02-03T18:07:30.517Z,98018.34
2023-02-03T18:09:57.087Z,98023.72
2023-02-03T18:12:24.271Z,98067.16
2023-02-03T18:14:51.169Z,98024.78
2023-02-03T18:17:17.733Z,98042.13
2023-02-03T18:19:46.793Z,98090.25
2023-02-03T18:22:15.730Z,98058.53
2023-02-03T18:24:44.877Z,97996.06
2023-02-03T18:27:16.645Z,98029.31
2023-02-03T18:29:46.446Z,98058.47
2023-02-03T18:32:13.794Z,98028.19
2023-02-03T18:34:40.373Z,98075.72
2023-02-03T18:37:07.313Z,98024.53
2023-02-03T18:39:33.884Z,98040.91
2023-02-03T18:42:00.558Z,98012.41
2023-02-03T18:44:27.656Z,98021.16
2023-02-03T18:46:54.571Z,98026.44
2023-02-03T18:49:21.139Z,98046.34
2023-02-03T18:51:47.687Z,98051.59
2023-02-03T18:54:14.198Z,97993.91
2023-02-03T18:56:40.759Z,97990.66
2023-02-03T18:59:08.856Z,98015.09
2023-02-03T19:01:35.892Z,98036.06
2023-02-03T19:04:03.311Z,98086.00
2023-02-03T19:06:30.784Z,98049.44
2023-02-03T19:08:57.843Z,97981.03
2023-02-03T19:11:24.404Z,98050.13
2023-02-03T19:13:51.006Z,98072.59
2023-02-03T19:16:17.728Z,98060.66
2023-02-03T19:18:44.957Z,98012.09
2023-02-03T19:21:11.838Z,98033.59
2023-02-03T19:23:39.287Z,98064.53
2023-02-03T19:26:05.840Z,98082.47
2023-02-03T19:28:34.504Z,98068.47
2023-02-03T19:31:09.241Z,98031.78
2023-02-03T19:33:38.971Z,97998.03
2023-02-03T19:36:06.395Z,98077.38
2023-02-03T19:38:32.979Z,98109.53
2023-02-03T19:41:01.642Z,98056.69
2023-02-03T19:43:28.926Z,98104.38
2023-02-03T19:45:55.493Z,98022.66
2023-02-03T19:48:21.995Z,98052.66
2023-02-03T19:50:48.663Z,98105.44
2023-02-03T19:53:15.896Z,98110.56
2023-02-03T19:55:46.321Z,98098.41
2023-02-03T19:58:12.978Z,98106.59
2023-02-03T20:00:41.539Z,98019.16
2023-02-03T20:03:08.076Z,98113.03
2023-02-03T20:05:34.597Z,98140.78
2023-02-03T20:08:04.658Z,98096.59
2023-02-03T20:10:32.849Z,98116.59
2023-02-03T20:12:59.734Z,98087.63
2023-02-03T20:15:26.935Z,98125.16
2023-02-03T20:17:53.535Z,98085.00
2023-02-03T20:20:22.104Z,98108.41
2023-02-03T20:22:48.995Z,98138.91
2023-02-03T20:25:15.633Z,98144.75
2023-02-03T20:27:42.227Z,98107.34
2023-02-03T20:30:09.386Z,98145.03
2023-02-03T20:32:36.112Z,98108.84
2023-02-03T20:35:04.107Z,98181.50
2023-02-03T20:37:30.903Z,98162.06
2023-02-03T20:39:57.425Z,98102.06
2023-02-03T20:42:27.072Z,98113.59
2023-02-03T20:44:53.788Z,97950.03
2023-02-03T20:47:22.286Z,97769.38
2023-02-03T20:49:49.709Z,97923.13
2023-02-03T20:52:17.711Z,98086.53
2023-02-03T20:54:44.269Z,98145.41
2023-02-03T20:57:15.495Z,98115.53
2023-02-03T20:59:44.501Z,98128.34
2023-02-03T21:02:34.113Z,98023.28
2023-02-03T21:05:02.151Z,97782.69
2023-02-03T21:07:30.897Z,97915.47
2023-02-03T21:09:58.390Z,98081.44
2023-02-03T21:12:25.196Z,98158.19
2023-02-03T21:14:53.773Z,98063.19
2023-02-03T21:17:22.195Z,98123.56
2023-02-03T21:19:48.744Z,98107.09
2023-02-03T21:22:18.145Z,98147.28
2023-02-03T21:24:57.649Z,98106.06
2023-02-03T21:27:25.602Z,98154.88
2023-02-03T21:29:55.769Z,98021.09
2023-02-03T21:32:23.345Z,98149.38
2023-02-03T21:34:50.263Z,98145.84
2023-02-03T21:37:37.680Z,98100.38
2023-02-03T21:40:17.606Z,98124.59
2023-02-03T21:42:45.916Z,98047.41
2023-02-03T21:45:19.288Z,98189.28
2023-02-03T21:47:47.533Z,98086.97
2023-02-03T21:50:33.198Z,98193.50
2023-02-03T21:53:08.820Z,98199.50
2023-02-03T21:55:36.411Z,98108.09
2023-02-03T21:58:12.080Z,98206.22
2023-02-03T22:00:42.844Z,98158.06
2023-02-03T22:03:36.512Z,98218.13
2023-02-03T22:06:09.938Z,98138.72
2023-02-03T22:08:37.068Z,98150.81
2023-02-03T22:11:03.761Z,98182.16
2023-02-03T22:13:30.414Z,98150.91
2023-02-03T22:15:57.202Z,98166.63
2023-02-03T22:18:23.763Z,98170.00
2023-02-03T22:20:50.305Z,98138.78
2023-02-03T22:23:16.924Z,98107.28
2023-02-03T22:25:43.427Z,98181.38
2023-02-03T22:28:10.111Z,98193.38
2023-02-03T22:30:36.830Z,98168.06
2023-02-03T22:33:03.480Z,98187.47
2023-02-03T22:35:30.524Z,98169.88
2023-02-03T22:37:57.284Z,98167.31
2023-02-03T22:40:24.036Z,98204.06
2023-02-03T22:42:50.649Z,98134.09
2023-02-03T22:45:17.498Z,98152.38
2023-02-03T22:47:44.059Z,98223.03
2023-02-03T22:50:11.485Z,98141.75
2023-02-03T22:52:38.175Z,98219.38
2023-02-03T22:55:05.505Z,98181.88
2023-02-03T22:57:32.051Z,98181.94
2023-02-03T22:59:58.638Z,98160.88
2023-02-03T23:02:25.142Z,98240.63
2023-02-03T23:04:51.776Z,98198.88
2023-02-03T23:07:18.432Z,98176.06
2023-02-03T23:09:45.063Z,98165.56
2023-02-03T23:12:11.630Z,98233.75
2023-02-03T23:14:38.163Z,98199.75
2023-02-03T23:17:04.746Z,98193.59
2023-02-03T23:19:31.277Z,98162.50
2023-02-03T23:21:59.197Z,98159.97
2023-02-03T23:24:25.793Z,98186.19
2023-02-03T23:26:52.332Z,98225.25
2023-02-03T23:29:18.867Z,98255.53
2023-02-03T23:31:45.544Z,98268.09
2023-02-03T23:34:30.805Z,98208.50
2023-02-03T23:36:57.424Z,98220.22
2023-02-03T23:39:23.967Z,98241.53
2023-02-03T23:41:50.521Z,98232.56
2023-02-03T23:44:17.160Z,98233.81
2023-02-03T23:46:43.762Z,98232.13
2023-02-03T23:49:10.449Z,98265.94
2023-02-03T23:51:37.038Z,98221.41
2023-02-03T23:54:03.694Z,98206.53
2023-02-03T23:56:30.339Z,98250.84
2023-02-03T23:58:56.921Z,98235.25
